Time;durP1;ratioP1;P1;durP2;ratioP2;P2;SDS_P1;SDS_P2;PMS_P1;PMS_P2;Temp;Humidity;BMP_temperature;BMP_pressure;BME280_temperature;BME280_humidity;BME280_pressure;Samples;Min_cycle;Max_cycle;Signal;HPM_P1;HPM_P2
2021/11/07 00:00:23;;;;;;;11.00;6.40;;;;;;;3.17;77.56;97386.70;115807;1196;29757;-88
2021/11/07 00:03:22;;;;;;;9.60;6.50;;;;;;;3.09;77.63;97388.72;115783;1196;26758;-89
2021/11/07 00:05:58;;;;;;;10.70;6.80;;;;;;;3.06;77.86;97388.41;115778;1196;25733;-90
2021/11/07 00:08:43;;;;;;;10.70;7.00;;;;;;;3.03;77.88;97386.75;115798;1189;27565;-89
2021/11/07 00:11:23;;;;;;;10.90;7.20;;;;;;;2.99;77.74;97376.14;115765;1196;26685;-88
2021/11/07 00:13:54;;;;;;;8.80;6.40;;;;;;;2.98;77.95;97368.85;115759;1196;24761;-89
2021/11/07 00:16:28;;;;;;;8.60;5.30;;;;;;;2.99;77.88;97357.97;115787;1189;27061;-89
2021/11/07 00:19:09;;;;;;;11.70;7.10;;;;;;;3.00;77.95;97353.64;115786;1196;25324;-89
2021/11/07 00:21:47;;;;;;;13.00;6.90;;;;;;;3.01;77.83;97341.15;115834;1196;26627;-89
2021/11/07 00:24:22;;;;;;;10.60;6.80;;;;;;;3.01;77.84;97333.09;115725;1196;26399;-89
2021/11/07 00:27:01;;;;;;;9.30;5.70;;;;;;;3.06;77.86;97321.77;115793;1196;25947;-89
2021/11/07 00:29:35;;;;;;;9.10;6.40;;;;;;;3.10;77.86;97317.15;115800;1189;27531;-89
2021/11/07 00:32:15;;;;;;;10.10;6.70;;;;;;;3.13;77.80;97315.67;115768;1196;29225;-89
2021/11/07 00:37:49;;;;;;;14.60;7.40;;;;;;;3.12;77.53;97317.54;115451;1199;25878;-89
2021/11/07 00:40:25;;;;;;;12.10;6.60;;;;;;;3.09;77.48;97320.61;115669;1196;34310;-89
2021/11/07 00:43:01;;;;;;;12.20;6.30;;;;;;;3.09;77.44;97320.41;115790;1196;23762;-89
2021/11/07 00:45:40;;;;;;;11.30;6.20;;;;;;;3.07;77.35;97314.94;115732;1196;27519;-88
2021/11/07 00:48:21;;;;;;;10.50;6.70;;;;;;;3.06;77.38;97315.55;115871;1196;27338;-89
2021/11/07 00:51:02;;;;;;;11.00;6.10;;;;;;;3.11;77.64;97315.13;115748;1196;27454;-89
2021/11/07 00:56:28;;;;;;;8.70;5.40;;;;;;;3.31;77.25;97308.59;115750;1196;29172;-89
2021/11/07 00:59:15;;;;;;;8.60;5.70;;;;;;;3.28;77.15;97301.52;115761;1196;25812;-89
2021/11/07 01:01:51;;;;;;;9.40;5.50;;;;;;;3.22;77.04;97294.59;115675;1197;26430;-88
2021/11/07 01:04:23;;;;;;;9.00;5.40;;;;;;;3.19;77.03;97287.08;115786;1196;25730;-89
2021/11/07 01:06:54;;;;;;;10.10;5.90;;;;;;;3.21;77.08;97283.80;115819;1196;28763;-88
2021/11/07 01:09:24;;;;;;;9.50;5.70;;;;;;;3.23;77.11;97278.81;115788;1196;28557;-87
2021/11/07 01:11:53;;;;;;;;;;;;;;;3.19;76.93;97280.55;115813;1190;27254;-88
2021/11/07 01:14:24;;;;;;;10.00;5.40;;;;;;;3.15;76.97;97280.84;115798;1196;28050;-90
2021/11/07 01:16:55;;;;;;;10.60;5.60;;;;;;;3.16;77.11;97272.76;115736;1196;29769;-89
2021/11/07 01:19:25;;;;;;;11.40;6.10;;;;;;;3.17;77.05;97260.14;115804;1196;25934;-89
2021/11/07 01:21:58;;;;;;;9.00;6.20;;;;;;;3.15;77.02;97260.45;115779;1196;26826;-90
2021/11/07 01:24:32;;;;;;;11.30;5.90;;;;;;;3.11;76.84;97257.20;115785;1196;26654;-88
2021/11/07 01:27:13;;;;;;;8.50;5.30;;;;;;;3.08;77.04;97252.42;115766;1181;28058;-90
2021/11/07 01:29:47;;;;;;;7.00;4.90;;;;;;;3.08;77.07;97256.86;115779;1196;27316;-89
2021/11/07 01:32:22;;;;;;;10.10;5.20;;;;;;;3.08;77.04;97248.76;115777;1196;26932;-88
2021/11/07 01:35:01;;;;;;;10.40;5.20;;;;;;;3.10;76.98;97234.48;115740;1190;31625;-87
2021/11/07 01:37:35;;;;;;;8.00;4.80;;;;;;;3.12;76.89;97233.66;115745;1196;27052;-88
2021/11/07 01:40:11;;;;;;;8.40;4.50;;;;;;;3.13;76.75;97232.21;115778;1196;26976;-89
2021/11/07 01:42:52;;;;;;;9.80;5.00;;;;;;;3.16;76.71;97220.92;115691;1196;27206;-88
2021/11/07 01:45:27;;;;;;;8.00;4.50;;;;;;;3.22;76.62;97219.29;115654;1196;28216;-89
2021/11/07 01:48:06;;;;;;;8.60;4.70;;;;;;;3.24;76.47;97212.77;115766;1196;27543;-89
2021/11/07 01:50:40;;;;;;;7.90;4.60;;;;;;;3.30;76.36;97207.38;115754;1197;25338;-89
2021/11/07 01:53:19;;;;;;;8.40;4.90;;;;;;;3.35;76.24;97209.70;115852;1196;24984;-88
2021/11/07 01:55:52;;;;;;;9.50;5.10;;;;;;;3.41;75.98;97212.15;115797;1196;26685;-89
2021/11/07 01:58:23;;;;;;;9.30;5.10;;;;;;;3.36;75.80;97209.44;115771;1196;29466;-89
2021/11/07 02:00:54;;;;;;;9.30;5.60;;;;;;;3.33;75.78;97196.22;115827;1196;25265;-88
2021/11/07 02:03:26;;;;;;;9.20;5.30;;;;;;;3.31;75.82;97195.23;115756;1196;26338;-88
2021/11/07 02:05:56;;;;;;;9.10;5.20;;;;;;;3.35;75.74;97190.09;115754;1196;26239;-89
2021/11/07 02:08:28;;;;;;;8.70;5.20;;;;;;;3.36;75.64;97187.63;115763;1196;25638;-88
2021/11/07 02:11:00;;;;;;;7.50;4.40;;;;;;;3.34;75.45;97182.37;115776;1189;25165;-88
2021/11/07 02:13:30;;;;;;;7.90;4.70;;;;;;;3.32;75.38;97184.77;115821;1196;26493;-88
2021/11/07 02:16:03;;;;;;;8.20;4.90;;;;;;;3.32;75.26;97187.50;115748;1196;26822;-88
2021/11/07 02:18:33;;;;;;;9.10;5.30;;;;;;;3.30;75.25;97192.39;115793;1195;24942;-88
2021/11/07 02:21:05;;;;;;;9.70;4.20;;;;;;;3.27;75.17;97188.02;115782;1196;36939;-89
2021/11/07 02:23:36;;;;;;;7.30;4.40;;;;;;;3.32;75.33;97192.36;115783;1189;27760;-90
2021/11/07 02:26:07;;;;;;;8.00;5.00;;;;;;;3.34;75.33;97191.85;115801;1196;27026;-89
2021/11/07 02:28:42;;;;;;;10.60;5.30;;;;;;;3.34;75.24;97180.23;115794;1189;28139;-89
2021/11/07 02:31:17;;;;;;;9.00;5.30;;;;;;;3.39;75.24;97170.35;115815;1196;26629;-88
2021/11/07 02:33:54;;;;;;;10.70;5.80;;;;;;;3.43;75.19;97163.29;115710;1196;26629;-89
2021/11/07 02:36:24;;;;;;;10.00;5.80;;;;;;;3.38;75.03;97155.80;115775;1196;28308;-89
2021/11/07 02:38:55;;;;;;;10.20;5.00;;;;;;;3.40;75.01;97157.09;115829;1196;24066;-89
2021/11/07 02:41:26;;;;;;;8.60;4.80;;;;;;;3.38;74.94;97154.55;115814;1196;25791;-89
2021/11/07 02:43:57;;;;;;;7.90;4.70;;;;;;;3.35;74.79;97157.60;115750;1196;26557;-88
2021/11/07 02:46:28;;;;;;;8.90;5.10;;;;;;;3.38;74.88;97157.86;115804;1196;31236;-89
2021/11/07 02:49:01;;;;;;;8.60;4.90;;;;;;;3.42;74.86;97155.16;115803;1196;25961;-88
2021/11/07 02:51:34;;;;;;;9.80;5.10;;;;;;;3.44;74.81;97154.20;115797;1196;26045;-88
2021/11/07 02:54:08;;;;;;;9.20;5.60;;;;;;;3.43;74.88;97146.31;115736;1196;25714;-88
2021/11/07 02:56:39;;;;;;;9.50;5.70;;;;;;;3.40;74.76;97145.59;115782;1196;29024;-89
2021/11/07 02:59:17;;;;;;;8.90;4.80;;;;;;;3.37;74.68;97144.84;115845;1195;25902;-88
2021/11/07 03:01:48;;;;;;;7.40;4.70;;;;;;;3.38;74.53;97134.16;115733;1196;26273;-89
2021/11/07 03:04:18;;;;;;;8.50;5.00;;;;;;;3.35;74.55;97139.47;115743;1196;27677;-89
2021/11/07 03:06:49;;;;;;;4.80;3.20;;;;;;;3.35;74.50;97144.66;115802;1196;26667;-88
2021/11/07 03:09:24;;;;;;;9.00;5.20;;;;;;;3.36;74.57;97143.64;115751;1196;25961;-89
2021/11/07 03:11:56;;;;;;;7.70;4.40;;;;;;;3.40;74.51;97136.48;115789;1196;29276;-89
2021/11/07 03:14:29;;;;;;;7.40;4.90;;;;;;;3.47;74.41;97147.04;115786;1196;25649;-89
2021/11/07 03:17:02;;;;;;;9.60;4.70;;;;;;;3.45;74.37;97153.59;115771;1196;28189;-89
2021/11/07 03:19:34;;;;;;;8.60;4.90;;;;;;;3.44;74.27;97148.39;115723;1195;27824;-89
2021/11/07 03:22:10;;;;;;;7.70;4.20;;;;;;;3.46;74.26;97145.30;115755;1196;27547;-89
2021/11/07 03:24:43;;;;;;;8.20;5.00;;;;;;;3.46;74.26;97143.37;115852;1181;25130;-89
2021/11/07 03:27:17;;;;;;;10.40;5.30;;;;;;;3.43;74.18;97138.98;115865;1196;27189;-89
2021/11/07 03:29:54;;;;;;;8.70;4.80;;;;;;;3.42;74.31;97134.07;115770;1196;28279;-89
2021/11/07 03:32:27;;;;;;;9.70;5.50;;;;;;;3.44;74.29;97126.30;115785;1196;24935;-90
2021/11/07 03:35:02;;;;;;;8.60;5.40;;;;;;;3.39;74.26;97118.10;115747;1196;27075;-88
2021/11/07 03:37:43;;;;;;;9.90;5.70;;;;;;;3.34;74.34;97106.69;115873;1196;27807;-89
2021/11/07 03:40:14;;;;;;;8.30;4.80;;;;;;;3.31;74.38;97104.45;115866;1196;25743;-89
2021/11/07 03:42:45;;;;;;;9.60;4.90;;;;;;;3.26;74.49;97104.07;115834;1190;25219;-89
2021/11/07 03:45:15;;;;;;;;;;;;;;;3.23;74.59;97101.70;115871;1195;26947;-89
2021/11/07 03:47:46;;;;;;;7.30;4.60;;;;;;;3.20;74.61;97106.14;115783;1196;27499;-89
2021/11/07 03:50:18;;;;;;;12.20;5.40;;;;;;;3.16;74.77;97109.33;115772;1196;26210;-89
2021/11/07 03:52:50;;;;;;;10.30;4.20;;;;;;;3.16;74.86;97103.61;115822;1196;26963;-89
2021/11/07 03:55:20;;;;;;;7.90;4.70;;;;;;;3.19;74.97;97096.83;115795;1189;26158;-89
2021/11/07 03:57:51;;;;;;;9.60;5.20;;;;;;;3.22;75.06;97093.09;115599;1197;24724;-89
2021/11/07 04:00:24;;;;;;;9.80;5.50;;;;;;;3.24;75.26;97089.77;115800;1196;25097;-89
2021/11/07 04:02:56;;;;;;;8.30;5.00;;;;;;;3.27;75.18;97088.08;115736;1196;25804;-90
2021/11/07 04:05:27;;;;;;;6.30;4.20;;;;;;;3.33;75.18;97086.32;115796;1196;26811;-89
2021/11/07 04:07:56;;;;;;;;;;;;;;;3.36;75.22;97074.83;115852;1196;27352;-89
2021/11/07 04:10:27;;;;;;;8.00;4.40;;;;;;;3.36;75.17;97072.04;115704;1184;26251;-89
2021/11/07 04:12:58;;;;;;;10.10;4.60;;;;;;;3.37;75.13;97072.63;115744;1196;26394;-89
2021/11/07 04:15:29;;;;;;;9.30;5.30;;;;;;;3.35;75.03;97071.29;115786;1196;28628;-89
2021/11/07 04:18:01;;;;;;;7.50;4.60;;;;;;;3.34;75.00;97065.42;115800;1196;29896;-89
2021/11/07 04:20:32;;;;;;;9.00;4.90;;;;;;;3.33;74.93;97061.52;115772;1190;27107;-89
2021/11/07 04:23:03;;;;;;;10.50;4.20;;;;;;;3.28;74.84;97051.67;115758;1196;25872;-89
2021/11/07 04:25:34;;;;;;;11.60;5.30;;;;;;;3.21;74.89;97051.78;115782;1196;31532;-89
2021/11/07 04:28:06;;;;;;;10.00;5.50;;;;;;;3.15;74.88;97052.67;115807;1196;25750;-88
2021/11/07 04:30:37;;;;;;;7.80;4.80;;;;;;;3.11;74.93;97053.62;115777;1196;26190;-89
2021/11/07 04:33:06;;;;;;;;;;;;;;;3.09;75.05;97052.83;115819;1196;25659;-89
2021/11/07 04:35:37;;;;;;;5.90;4.20;;;;;;;3.07;75.03;97052.80;115840;1196;25125;-90
2021/11/07 04:38:08;;;;;;;8.20;5.10;;;;;;;3.06;75.07;97051.98;115796;1196;25995;-89
2021/11/07 04:40:38;;;;;;;7.20;4.80;;;;;;;3.06;75.13;97047.05;115795;1196;28547;-89
2021/11/07 04:43:09;;;;;;;8.80;5.50;;;;;;;3.05;75.18;97041.38;115758;1196;29144;-90
2021/11/07 04:45:40;;;;;;;8.30;5.10;;;;;;;3.05;75.03;97042.80;115879;1196;25475;-89
2021/11/07 04:48:09;;;;;;;;;;;;;;;3.07;75.08;97041.69;115863;1196;24960;-89
2021/11/07 04:50:41;;;;;;;5.90;4.00;;;;;;;3.06;75.09;97037.22;115863;1196;27604;-89
2021/11/07 04:53:14;;;;;;;8.60;4.20;;;;;;;3.05;75.20;97035.09;115865;1196;25422;-88
2021/11/07 04:55:46;;;;;;;9.10;5.10;;;;;;;3.04;75.21;97031.92;115881;1196;25217;-87
2021/11/07 04:58:17;;;;;;;9.70;5.00;;;;;;;3.06;75.40;97028.63;115730;1190;38786;-89
2021/11/07 05:00:48;;;;;;;8.40;5.00;;;;;;;3.12;75.38;97027.01;115764;1196;25320;-90
2021/11/07 05:03:19;;;;;;;6.30;4.50;;;;;;;3.17;75.42;97019.23;115774;1196;27182;-90
2021/11/07 05:05:50;;;;;;;8.70;4.90;;;;;;;3.17;75.25;97017.79;115781;1196;29708;-88
2021/11/07 05:08:21;;;;;;;6.80;4.50;;;;;;;3.19;75.26;97019.54;115849;1196;28438;-90
2021/11/07 05:10:50;;;;;;;;;;;;;;;3.22;75.18;97016.23;115812;1196;28440;-89
2021/11/07 05:13:21;;;;;;;9.10;4.40;;;;;;;3.28;75.21;97007.53;115787;1196;26277;-88
2021/11/07 05:15:52;;;;;;;7.60;4.80;;;;;;;3.32;75.21;97001.30;115749;1189;30076;-88
2021/11/07 05:18:23;;;;;;;8.00;4.60;;;;;;;3.33;75.04;96992.10;115848;1196;25523;-89
2021/11/07 05:20:55;;;;;;;6.50;4.60;;;;;;;3.35;74.90;96986.07;115814;1196;24587;-89
2021/11/07 05:23:25;;;;;;;5.70;4.20;;;;;;;3.36;74.80;96986.57;115758;1189;28413;-88
2021/11/07 05:25:57;;;;;;;7.70;4.80;;;;;;;3.37;74.61;96993.49;115782;1189;25227;-89
2021/11/07 05:28:28;;;;;;;7.00;4.20;;;;;;;3.39;74.54;96985.87;115793;1196;26208;-89
2021/11/07 05:30:59;;;;;;;8.50;5.00;;;;;;;3.41;74.59;96978.66;115764;1196;26398;-88
2021/11/07 05:33:31;;;;;;;8.40;4.80;;;;;;;3.46;74.60;96970.84;115729;1197;26235;-88
2021/11/07 05:36:02;;;;;;;6.40;4.30;;;;;;;3.49;74.31;96969.86;115810;1196;28239;-89
2021/11/07 05:38:33;;;;;;;7.80;4.30;;;;;;;3.54;74.05;96965.02;115742;1196;28251;-89
2021/11/07 05:41:04;;;;;;;8.20;3.90;;;;;;;3.57;74.07;96959.35;115750;1196;26165;-88
2021/11/07 05:43:35;;;;;;;6.50;4.20;;;;;;;3.60;73.87;96958.86;115753;1196;27663;-88
2021/11/07 05:46:05;;;;;;;8.50;4.10;;;;;;;3.62;73.82;96959.23;115764;1196;27009;-88
2021/11/07 05:48:38;;;;;;;;;;;;;;;3.69;73.71;96961.03;115784;1196;25867;-88
2021/11/07 05:51:11;;;;;;;7.10;4.00;;;;;;;3.74;73.36;96957.84;115720;1196;30403;-89
2021/11/07 05:53:43;;;;;;;6.70;3.80;;;;;;;3.78;73.02;96952.59;115768;1196;25907;-89
2021/11/07 05:56:14;;;;;;;7.90;4.60;;;;;;;3.81;72.83;96946.44;115774;1196;28680;-89
2021/11/07 05:58:44;;;;;;;5.80;3.40;;;;;;;3.86;72.57;96942.20;115831;1196;25370;-90
2021/11/07 06:01:15;;;;;;;6.40;4.00;;;;;;;3.88;72.45;96937.26;115742;1196;28431;-90
2021/11/07 06:03:46;;;;;;;6.30;3.60;;;;;;;3.92;72.30;96927.73;115771;1190;28339;-89
2021/11/07 06:06:17;;;;;;;8.30;4.60;;;;;;;3.97;72.11;96919.94;115768;1196;29939;-89
2021/11/07 06:08:48;;;;;;;5.10;3.40;;;;;;;4.03;71.91;96917.97;115737;1196;29202;-89
2021/11/07 06:11:19;;;;;;;6.10;3.60;;;;;;;4.12;71.82;96907.44;115748;1196;28577;-90
2021/11/07 06:13:51;;;;;;;5.60;3.20;;;;;;;4.23;71.36;96898.40;115744;1196;30381;-88
2021/11/07 06:16:22;;;;;;;7.10;3.70;;;;;;;4.37;70.64;96894.34;115728;1196;37707;-89
2021/11/07 06:18:53;;;;;;;5.50;3.30;;;;;;;4.51;69.90;96895.48;115776;1195;26919;-88
2021/11/07 06:21:24;;;;;;;6.20;3.70;;;;;;;4.61;69.52;96891.31;115747;1195;32548;-87
2021/11/07 06:23:57;;;;;;;5.70;3.50;;;;;;;4.71;69.17;96880.73;115758;1196;27956;-90
2021/11/07 06:26:28;;;;;;;5.90;3.90;;;;;;;4.76;68.88;96880.77;115737;1196;27416;-88
2021/11/07 06:28:59;;;;;;;5.30;3.20;;;;;;;4.81;68.52;96871.15;115808;1195;37498;-89
2021/11/07 06:31:30;;;;;;;4.30;2.70;;;;;;;4.89;68.22;96870.44;115813;1195;27999;-88
2021/11/07 06:34:01;;;;;;;4.30;2.60;;;;;;;5.00;67.51;96865.41;115757;1189;27345;-89
2021/11/07 06:36:32;;;;;;;4.00;2.30;;;;;;;5.17;66.56;96867.36;115723;1196;33649;-88
2021/11/07 06:39:03;;;;;;;2.90;2.20;;;;;;;5.37;65.99;96857.66;115716;1196;27257;-88
2021/11/07 06:41:34;;;;;;;3.80;2.60;;;;;;;5.48;65.57;96851.84;115748;1196;29011;-88
2021/11/07 06:44:07;;;;;;;4.30;2.70;;;;;;;5.54;65.25;96858.77;115723;1196;27574;-88
2021/11/07 06:46:38;;;;;;;4.80;2.80;;;;;;;5.58;64.75;96875.30;115768;1196;27247;-89
2021/11/07 06:49:12;;;;;;;5.10;2.70;;;;;;;5.62;64.37;96867.98;115780;1195;30036;-88
2021/11/07 06:51:45;;;;;;;4.70;2.80;;;;;;;5.65;63.77;96875.46;115807;1196;27087;-83
2021/11/07 06:54:16;;;;;;;5.70;3.20;;;;;;;5.68;63.69;96863.89;115775;1196;25102;-82
2021/11/07 06:56:47;;;;;;;5.50;3.00;;;;;;;5.69;63.48;96856.64;115650;1197;24110;-83
2021/11/07 06:59:18;;;;;;;5.30;3.10;;;;;;;5.70;63.66;96846.19;115800;1196;25290;-83
2021/11/07 07:01:49;;;;;;;5.50;2.80;;;;;;;5.70;63.17;96837.45;115708;1196;25062;-88
2021/11/07 07:04:20;;;;;;;5.30;2.90;;;;;;;5.67;63.21;96842.63;115801;1196;27849;-88
2021/11/07 07:06:51;;;;;;;5.00;2.80;;;;;;;5.68;63.34;96851.27;115752;1196;27493;-87
2021/11/07 07:09:25;;;;;;;4.00;2.10;;;;;;;5.80;63.40;96845.23;115753;1190;30818;-87
2021/11/07 07:12:05;;;;;;;2.50;1.60;;;;;;;5.95;63.00;96840.77;115846;1196;25300;-85
2021/11/07 07:14:40;;;;;;;3.80;2.40;;;;;;;6.21;62.92;96844.23;115783;1196;28175;-87
2021/11/07 07:17:25;;;;;;;4.20;2.50;;;;;;;6.46;62.77;96853.11;115808;1196;27074;-88
2021/11/07 07:28:36;;;;;;;8.60;4.50;;;;;;;8.88;60.03;96845.35;115721;1196;27359;-87
2021/11/07 07:34:09;;;;;;;7.20;3.80;;;;;;;10.15;56.99;96816.14;115370;1199;27175;-87
2021/11/07 07:36:40;;;;;;;7.70;3.70;;;;;;;10.43;56.90;96819.89;115633;1196;25475;-86
2021/11/07 07:39:11;;;;;;;6.90;3.60;;;;;;;10.82;56.67;96816.35;115740;1196;29502;-86
2021/11/07 07:41:42;;;;;;;5.80;3.50;;;;;;;11.08;54.48;96811.89;115787;1196;27966;-85
2021/11/07 07:44:14;;;;;;;4.90;3.30;;;;;;;11.04;53.31;96808.99;115777;1196;26417;-85
2021/11/07 07:46:46;;;;;;;5.10;3.40;;;;;;;11.06;53.92;96810.67;115798;1196;27431;-85
2021/11/07 07:49:19;;;;;;;2.90;1.60;;;;;;;11.47;53.98;96806.71;115691;1196;27192;-86
2021/11/07 07:51:51;;;;;;;6.80;3.60;;;;;;;11.51;52.47;96807.42;115715;1196;26515;-86
2021/11/07 07:54:23;;;;;;;6.90;3.40;;;;;;;11.71;52.59;96805.60;115714;1196;36264;-85
2021/11/07 07:56:55;;;;;;;9.80;4.00;;;;;;;11.94;52.89;96808.05;115719;1196;25140;-86
2021/11/07 07:59:26;;;;;;;6.90;4.10;;;;;;;12.32;53.01;96814.16;114298;1196;1748768;-85
2021/11/07 08:01:58;;;;;;;7.10;4.00;;;;;;;12.55;51.88;96814.43;115665;1196;25337;-85
2021/11/07 08:04:29;;;;;;;6.00;3.90;;;;;;;12.59;51.66;96815.50;115685;1196;24933;-86
2021/11/07 08:07:02;;;;;;;4.80;3.40;;;;;;;12.78;51.08;96818.70;115661;1196;26354;-86
2021/11/07 08:09:33;;;;;;;4.60;2.60;;;;;;;12.77;50.98;96809.88;115663;1196;26640;-86
2021/11/07 08:12:02;;;;;;;;;;;;;;;12.81;51.03;96798.39;115679;1196;23912;-87
2021/11/07 08:14:33;;;;;;;5.70;3.30;;;;;;;12.58;49.82;96789.13;115706;1196;25350;-86
2021/11/07 08:17:03;;;;;;;7.90;4.30;;;;;;;12.10;49.43;96786.46;115699;1196;24800;-86
2021/11/07 08:19:35;;;;;;;7.70;4.30;;;;;;;11.60;50.11;96786.94;115729;1196;25950;-86
2021/11/07 08:22:05;;;;;;;7.50;4.00;;;;;;;11.35;50.29;96779.36;115804;1196;24952;-86
2021/11/07 08:24:37;;;;;;;5.50;4.00;;;;;;;11.05;50.90;96770.27;115758;1181;27502;-85
2021/11/07 08:27:09;;;;;;;8.40;4.60;;;;;;;10.94;51.40;96770.91;115754;1196;39216;-84
2021/11/07 08:29:40;;;;;;;9.20;4.30;;;;;;;10.91;51.66;96765.52;115780;1196;26623;-86
2021/11/07 08:32:11;;;;;;;9.60;4.90;;;;;;;10.92;51.30;96764.14;115708;1196;32365;-85
2021/11/07 08:34:42;;;;;;;8.10;4.40;;;;;;;10.78;51.82;96757.02;115799;1190;28699;-84
2021/11/07 08:37:13;;;;;;;;;;;;;;;10.84;51.37;96756.67;115751;1197;26269;-85
2021/11/07 08:39:47;;;;;;;2.00;1.30;;;;;;;10.66;49.09;96747.83;115805;1195;29238;-85
2021/11/07 08:42:28;;;;;;;2.20;1.30;;;;;;;10.55;48.64;96749.95;115756;1196;35713;-85
2021/11/07 09:02:07;;;;;;;2.70;1.30;;;;;;;10.20;45.28;96723.88;115807;1195;38407;-85
2021/11/07 09:04:51;;;;;;;2.20;1.10;;;;;;;10.30;45.55;96712.35;115745;1194;30769;-84
2021/11/07 09:07:25;;;;;;;2.50;1.10;;;;;;;10.37;46.03;96708.80;115777;1190;24720;-84
2021/11/07 09:09:59;;;;;;;2.20;1.20;;;;;;;10.39;45.38;96710.86;115690;1196;26584;-84
2021/11/07 09:12:30;;;;;;;1.70;0.80;;;;;;;10.42;45.23;96695.64;115791;1196;27053;-84
2021/11/07 09:15:01;;;;;;;2.10;0.80;;;;;;;10.35;44.49;96696.63;115755;1196;26900;-85
2021/11/07 09:17:32;;;;;;;1.60;1.10;;;;;;;10.26;45.23;96693.08;115751;1195;29382;-85
2021/11/07 09:20:07;;;;;;;3.20;1.10;;;;;;;10.41;45.66;96690.45;115675;1196;30177;-84
2021/11/07 09:22:43;;;;;;;1.50;1.20;;;;;;;10.61;45.50;96677.33;115729;1196;31871;-84
2021/11/07 09:25:19;;;;;;;2.80;1.00;;;;;;;10.82;44.99;96678.77;115697;1196;26540;-83
2021/11/07 09:27:54;;;;;;;1.50;1.20;;;;;;;10.99;45.04;96677.02;115785;1196;26160;-82
2021/11/07 09:30:29;;;;;;;1.30;0.90;;;;;;;11.22;45.51;96676.30;115766;1196;25235;-83
2021/11/07 09:33:08;;;;;;;1.60;0.60;;;;;;;11.43;44.56;96670.83;115753;1196;24515;-84
2021/11/07 09:35:46;;;;;;;1.60;0.50;;;;;;;11.41;43.85;96669.73;115731;1190;24984;-84
2021/11/07 09:38:19;;;;;;;1.10;0.70;;;;;;;11.32;43.63;96650.93;115755;1196;23429;-84
2021/11/07 09:41:06;;;;;;;4.10;1.10;;;;;;;11.33;43.92;96652.56;115775;1181;24297;-85
2021/11/07 09:43:45;;;;;;;4.50;1.10;;;;;;;11.35;44.15;96648.09;115681;1196;24892;-85
2021/11/07 09:46:28;;;;;;;4.00;1.00;;;;;;;11.46;44.85;96658.64;115751;1196;30995;-82
2021/11/07 09:49:00;;;;;;;1.20;0.80;;;;;;;11.49;44.37;96638.48;115742;1195;25494;-84
2021/11/07 09:51:35;;;;;;;1.00;0.70;;;;;;;11.44;44.84;96646.66;115756;1196;25100;-84
2021/11/07 09:54:06;;;;;;;1.50;0.90;;;;;;;11.51;45.27;96647.06;115709;1196;27587;-83
2021/11/07 09:56:38;;;;;;;1.00;0.80;;;;;;;11.63;45.40;96640.08;115657;1196;23340;-83
2021/11/07 09:59:09;;;;;;;2.60;0.50;;;;;;;11.72;44.92;96627.23;115723;1196;23968;-83
2021/11/07 10:01:41;;;;;;;0.60;0.60;;;;;;;11.65;45.13;96624.90;115809;1196;24774;-84
2021/11/07 10:04:13;;;;;;;1.40;0.70;;;;;;;11.61;44.85;96627.67;115722;1196;26819;-84
2021/11/07 10:06:47;;;;;;;3.20;0.90;;;;;;;11.61;45.43;96624.89;115725;1190;25558;-85
2021/11/07 10:09:34;;;;;;;2.40;1.10;;;;;;;11.59;45.11;96595.45;115694;1196;25960;-84
2021/11/07 10:12:10;;;;;;;3.00;1.00;;;;;;;11.46;45.91;96598.65;115663;1196;27502;-84
2021/11/07 10:14:49;;;;;;;1.50;0.80;;;;;;;11.31;46.11;96584.48;115680;1197;25022;-84
2021/11/07 10:17:36;;;;;;;3.10;1.00;;;;;;;11.16;46.77;96596.83;115747;1196;29743;-85
2021/11/07 10:20:25;;;;;;;4.40;1.00;;;;;;;11.17;46.88;96591.80;115739;1196;25874;-85
2021/11/07 10:23:04;;;;;;;2.50;1.10;;;;;;;11.11;47.00;96573.29;115702;1196;28577;-84
2021/11/07 10:25:51;;;;;;;3.90;1.30;;;;;;;10.98;47.48;96586.53;115716;1196;40499;-85
2021/11/07 10:28:28;;;;;;;2.60;1.50;;;;;;;10.82;48.07;96594.59;115770;1196;25199;-86
2021/11/07 10:31:15;;;;;;;1.40;1.00;;;;;;;10.77;48.81;96581.43;115758;1196;27039;-85
2021/11/07 10:39:35;;;;;;;2.50;1.10;;;;;;;10.48;49.48;96584.45;115771;1196;27170;-84
2021/11/07 10:42:20;;;;;;;2.50;1.20;;;;;;;10.45;49.84;96583.48;115712;1196;24744;-84
2021/11/07 10:48:13;;;;;;;2.50;1.40;;;;;;;10.60;50.25;96576.11;115760;1190;25029;-85
2021/11/07 10:53:34;;;;;;;1.70;1.00;;;;;;;10.88;49.04;96562.77;115795;1189;25104;-85
2021/11/07 10:56:07;;;;;;;;;;;;;;;11.06;49.53;96562.56;115734;1196;26897;-86
2021/11/07 10:58:41;;;;;;;2.60;1.10;;;;;;;11.23;49.17;96540.36;115760;1196;26906;-85
2021/11/07 11:01:25;;;;;;;1.10;0.80;;;;;;;11.29;49.03;96544.28;105765;1195;3945784;-86
2021/11/07 11:04:07;;;;;;;2.10;1.20;;;;;;;11.30;48.43;96549.73;105250;1194;2529822;-86
2021/11/07 11:06:38;;;;;;;;;;;;;;;11.23;48.93;96560.27;107077;1196;5457348;-84
2021/11/07 11:09:18;;;;;;;4.70;0.80;;;;;;;11.16;48.78;96552.75;115647;1195;182556;-86
2021/11/07 11:11:55;;;;;;;3.80;1.20;;;;;;;11.27;49.14;96558.46;110108;1196;2611896;-86
2021/11/07 11:14:29;;;;;;;2.20;1.20;;;;;;;11.45;48.98;96550.17;115777;1196;26093;-85
2021/11/07 11:17:24;;;;;;;5.90;1.30;;;;;;;11.52;49.08;96554.39;108590;1189;2342347;-85
2021/11/07 11:20:16;;;;;;;;;;;;;;;11.73;49.02;96541.48;110487;1190;2650495;-85
2021/11/07 11:22:56;;;;;;;5.70;2.10;;;;;;;12.04;49.83;96544.35;115795;1190;24815;-83
2021/11/07 11:25:40;;;;;;;2.60;1.60;;;;;;;12.46;49.22;96535.52;108795;1190;2045822;-85
2021/11/07 11:28:28;;;;;;;3.70;1.40;;;;;;;12.75;48.45;96536.76;115644;1196;146710;-84
2021/11/07 11:31:16;;;;;;;3.40;1.40;;;;;;;12.86;48.06;96520.83;115666;1196;158089;-86
2021/11/07 11:33:53;;;;;;;3.20;1.70;;;;;;;12.90;47.37;96499.62;112622;1196;2528794;-85
2021/11/07 11:36:32;;;;;;;5.60;1.30;;;;;;;12.92;47.70;96501.70;113897;1196;2186796;-84
2021/11/07 11:39:12;;;;;;;4.40;1.90;;;;;;;12.87;47.17;96483.91;103168;1197;3247412;-85
2021/11/07 11:42:06;;;;;;;2.90;1.50;;;;;;;12.88;47.31;96494.16;99520;1190;7008354;-84
2021/11/07 11:44:40;;;;;;;3.20;1.80;;;;;;;12.92;47.28;96498.17;115722;1195;142116;-83
2021/11/07 11:47:33;;;;;;;3.80;1.70;;;;;;;12.95;47.24;96491.48;115755;1196;28043;-83
2021/11/07 11:50:26;;;;;;;3.40;1.60;;;;;;;12.70;46.88;96483.65;114163;1195;1693887;-84
2021/11/07 11:56:27;;;;;;;2.80;1.50;;;;;;;12.46;47.91;96480.84;110063;1189;3080012;-85
2021/11/07 11:59:03;;;;;;;3.40;1.90;;;;;;;12.33;48.19;96476.97;114888;1196;215358;-85
2021/11/07 12:01:43;;;;;;;5.90;1.80;;;;;;;12.35;48.65;96476.02;115389;1196;113690;-84
2021/11/07 12:04:26;;;;;;;3.20;1.50;;;;;;;12.40;48.63;96478.02;114540;1195;325568;-84
2021/11/07 12:07:22;;;;;;;3.00;1.30;;;;;;;12.39;48.70;96477.02;111605;1189;2597558;-83
2021/11/07 12:10:01;;;;;;;3.00;2.30;;;;;;;12.33;48.42;96476.34;109198;1196;2538051;-84
2021/11/07 12:12:42;;;;;;;3.70;1.90;;;;;;;12.42;48.87;96470.64;115055;1190;292057;-81
2021/11/07 12:15:36;;;;;;;2.90;1.60;;;;;;;12.66;48.56;96467.14;112897;1196;2306649;-84
2021/11/07 12:18:17;;;;;;;2.60;1.20;;;;;;;12.72;48.13;96465.48;110823;1197;2700395;-84
2021/11/07 12:21:07;;;;;;;2.90;1.70;;;;;;;12.58;48.18;96464.00;113363;1196;2921469;-85
2021/11/07 12:23:41;;;;;;;3.50;1.80;;;;;;;12.54;48.60;96467.63;106010;1196;4412788;-85
2021/11/07 12:26:30;;;;;;;3.90;1.90;;;;;;;12.55;48.56;96466.92;110137;1196;2535357;-89
2021/11/07 12:29:03;;;;;;;4.40;2.10;;;;;;;12.57;48.64;96456.52;111931;1195;2313998;-84
2021/11/07 12:32:00;;;;;;;2.10;1.40;;;;;;;12.54;48.39;96460.17;112039;1196;2170732;-85
2021/11/07 12:35:04;;;;;;;3.00;1.80;;;;;;;12.47;48.72;96462.30;114645;1195;313633;-84
2021/11/07 12:40:53;;;;;;;4.10;2.00;;;;;;;12.34;48.87;96462.23;115462;1196;164524;-84
2021/11/07 12:43:37;;;;;;;4.60;2.50;;;;;;;12.02;49.22;96457.34;115252;1195;273611;-86
2021/11/07 12:46:28;;;;;;;2.30;1.70;;;;;;;11.67;49.84;96436.56;113274;1195;2186464;-86
2021/11/07 12:49:08;;;;;;;3.50;2.00;;;;;;;11.28;50.48;96455.53;113146;1196;1509750;-86
2021/11/07 12:51:54;;;;;;;5.00;2.50;;;;;;;11.10;51.16;96458.64;111262;1196;3181391;-86
2021/11/07 12:54:33;;;;;;;3.30;2.50;;;;;;;10.99;51.66;96454.70;108082;1195;5834819;-86
2021/11/07 12:57:15;;;;;;;2.80;1.90;;;;;;;10.96;51.90;96443.95;112510;1190;2347763;-87